createdAt,value
2022-07-25T00:00:00.461Z,8.43
2022-07-25T00:03:04.182Z,8.10
2022-07-25T00:06:07.701Z,8.45
2022-07-25T00:09:16.466Z,8.65
2022-07-25T00:12:21.809Z,8.35
2022-07-25T00:15:24.822Z,8.45
2022-07-25T00:18:28.157Z,7.32
2022-07-25T00:21:31.136Z,7.70
2022-07-25T00:24:34.481Z,8.15
2022-07-25T00:27:38.686Z,9.10
2022-07-25T00:30:42.064Z,8.27
2022-07-25T00:33:44.909Z,8.20
2022-07-25T00:36:48.038Z,8.68
2022-07-25T00:39:50.947Z,9.05
2022-07-25T00:42:55.139Z,8.23
2022-07-25T00:45:58.885Z,8.32
2022-07-25T00:49:02.545Z,9.00
2022-07-25T00:52:06.113Z,8.85
2022-07-25T00:55:09.684Z,8.43
2022-07-25T00:58:14.265Z,8.68
2022-07-25T01:01:17.453Z,8.88
2022-07-25T01:04:20.876Z,9.10
2022-07-25T01:07:24.399Z,8.68
2022-07-25T01:10:27.399Z,9.00
2022-07-25T01:13:33.589Z,8.45
2022-07-25T01:16:36.548Z,9.32
2022-07-25T01:19:39.413Z,8.48
2022-07-25T01:22:43.880Z,8.68
2022-07-25T01:25:46.809Z,8.98
2022-07-25T01:28:50.050Z,9.18
2022-07-25T01:31:53.014Z,8.77
2022-07-25T01:34:55.862Z,9.00
2022-07-25T01:38:00.087Z,8.82
2022-07-25T01:41:03.045Z,8.70
2022-07-25T01:44:06.568Z,9.45
2022-07-25T01:47:09.789Z,9.68
2022-07-25T01:50:12.722Z,8.27
2022-07-25T01:53:16.999Z,9.27
2022-07-25T01:56:21.305Z,9.25
2022-07-25T01:59:25.470Z,9.30
2022-07-25T02:02:28.415Z,9.38
2022-07-25T02:05:31.273Z,8.32
2022-07-25T02:08:35.725Z,7.80
2022-07-25T02:11:38.984Z,8.93
2022-07-25T02:14:41.972Z,9.52
2022-07-25T02:17:44.843Z,8.07
2022-07-25T02:20:47.754Z,8.73
2022-07-25T02:23:51.943Z,9.20
2022-07-25T02:26:54.841Z,9.73
2022-07-25T02:29:57.751Z,8.98
2022-07-25T02:33:00.946Z,9.23
2022-07-25T02:36:03.869Z,9.02
2022-07-25T02:39:08.179Z,9.50
2022-07-25T02:42:11.023Z,9.10
2022-07-25T02:45:13.950Z,9.45
2022-07-25T02:48:16.858Z,9.35
2022-07-25T02:51:19.718Z,9.93
2022-07-25T02:54:23.903Z,9.35
2022-07-25T02:57:26.885Z,9.48
2022-07-25T03:00:30.368Z,10.00
2022-07-25T03:03:33.278Z,9.23
2022-07-25T03:06:36.459Z,9.13
2022-07-25T03:09:40.702Z,9.45
2022-07-25T03:12:44.669Z,9.23
2022-07-25T03:15:47.568Z,9.25
2022-07-25T03:18:50.437Z,9.93
2022-07-25T03:21:53.283Z,10.18
2022-07-25T03:24:57.498Z,8.50
2022-07-25T03:28:00.810Z,9.57
2022-07-25T03:31:03.871Z,8.93
2022-07-25T03:34:07.332Z,9.65
2022-07-25T03:37:10.575Z,9.25
2022-07-25T03:40:15.944Z,9.00
2022-07-25T03:43:18.978Z,8.93
2022-07-25T03:46:21.942Z,10.23
2022-07-25T03:49:24.857Z,9.38
2022-07-25T03:52:27.733Z,9.38
2022-07-25T03:55:31.977Z,10.57
2022-07-25T03:58:34.841Z,9.93
2022-07-25T04:01:38.142Z,8.73
2022-07-25T04:04:41.054Z,9.70
2022-07-25T04:07:43.919Z,9.80
2022-07-25T04:10:48.120Z,9.45
2022-07-25T04:13:51.369Z,9.00
2022-07-25T04:16:54.290Z,9.95
2022-07-25T04:19:57.460Z,9.88
2022-07-25T04:23:00.330Z,9.88
2022-07-25T04:26:04.676Z,9.55
2022-07-25T04:29:07.669Z,10.10
2022-07-25T04:32:10.914Z,9.93
2022-07-25T04:35:13.922Z,10.13
2022-07-25T04:38:16.799Z,9.07
2022-07-25T04:41:21.034Z,11.00
2022-07-25T04:44:24.449Z,11.30
2022-07-25T04:47:27.403Z,11.07
2022-07-25T04:50:30.903Z,10.70
2022-07-25T04:53:33.810Z,10.85
2022-07-25T04:56:38.054Z,11.73
2022-07-25T04:59:41.085Z,12.13
2022-07-25T05:02:44.478Z,12.05
2022-07-25T05:05:47.416Z,11.05
2022-07-25T05:08:50.330Z,11.85
2022-07-25T05:11:56.601Z,11.70
2022-07-25T05:14:59.633Z,10.15
2022-07-25T05:18:02.499Z,10.52
2022-07-25T05:21:05.514Z,11.50
2022-07-25T05:24:09.195Z,11.20
2022-07-25T05:27:13.744Z,10.88
2022-07-25T05:30:16.690Z,10.90
2022-07-25T05:33:19.531Z,10.98
2022-07-25T05:36:22.391Z,11.57
2022-07-25T05:39:25.253Z,11.57
2022-07-25T05:42:29.471Z,10.68
2022-07-25T05:45:32.430Z,11.00
2022-07-25T05:48:35.316Z,11.18
2022-07-25T05:51:38.248Z,10.38
2022-07-25T05:54:42.888Z,11.05
2022-07-25T05:57:47.093Z,11.57
2022-07-25T06:00:50.977Z,10.68
2022-07-25T06:03:53.942Z,11.35
2022-07-25T06:06:57.000Z,12.13
2022-07-25T06:09:59.882Z,11.20
2022-07-25T06:13:04.137Z,10.45
2022-07-25T06:16:08.723Z,11.10
2022-07-25T06:19:11.722Z,11.38
2022-07-25T06:22:14.779Z,10.80
2022-07-25T06:25:17.701Z,9.95
2022-07-25T06:28:21.969Z,10.25
2022-07-25T06:31:24.886Z,10.35
2022-07-25T06:34:28.891Z,10.85
2022-07-25T06:37:31.921Z,10.25
2022-07-25T06:40:34.837Z,11.65
2022-07-25T06:43:39.047Z,9.85
2022-07-25T06:46:42.036Z,10.80
2022-07-25T06:49:44.947Z,10.10
2022-07-25T06:52:48.248Z,10.13
2022-07-25T06:55:51.113Z,10.00
2022-07-25T06:58:55.301Z,11.18
2022-07-25T07:01:58.161Z,11.75
2022-07-25T07:05:01.146Z,10.32
2022-07-25T07:08:05.026Z,11.23
2022-07-25T07:11:08.358Z,10.98
2022-07-25T07:14:12.566Z,10.65
2022-07-25T07:17:15.426Z,10.40
2022-07-25T07:20:18.299Z,10.48
2022-07-25T07:23:21.310Z,9.90
2022-07-25T07:26:24.718Z,10.35
2022-07-25T07:29:35.486Z,10.27
2022-07-25T07:32:40.915Z,9.65
2022-07-25T07:35:45.350Z,9.77
2022-07-25T07:38:48.341Z,10.35
2022-07-25T07:41:51.231Z,10.40
2022-07-25T07:44:55.430Z,10.05
2022-07-25T07:47:58.516Z,10.75
2022-07-25T07:51:02.600Z,10.05
2022-07-25T07:54:23.218Z,9.45
2022-07-25T07:57:26.164Z,10.02
2022-07-25T08:00:31.935Z,10.15
2022-07-25T08:03:34.981Z,9.85
2022-07-25T08:06:37.857Z,10.32
2022-07-25T08:09:40.729Z,8.43
2022-07-25T08:12:43.663Z,10.60
2022-07-25T08:15:50.462Z,11.13
2022-07-25T08:18:53.382Z,10.90
2022-07-25T08:21:56.709Z,10.43
2022-07-25T08:24:59.555Z,10.68
2022-07-25T08:28:02.460Z,10.05
2022-07-25T08:31:07.070Z,10.07
2022-07-25T08:34:10.183Z,9.30
2022-07-25T08:37:14.206Z,10.23
2022-07-25T08:40:18.669Z,11.18
2022-07-25T08:43:21.846Z,10.07
2022-07-25T08:46:28.720Z,9.82
2022-07-25T08:49:31.790Z,11.15
2022-07-25T08:52:36.187Z,11.07
2022-07-25T08:55:39.434Z,10.77
2022-07-25T08:58:44.044Z,10.10
2022-07-25T09:01:48.855Z,10.52
2022-07-25T09:04:51.848Z,9.70
2022-07-25T09:07:56.421Z,10.90
2022-07-25T09:10:59.882Z,10.60
2022-07-25T09:14:05.889Z,9.63
2022-07-25T09:17:22.376Z,10.32
2022-07-25T09:20:37.427Z,9.27
2022-07-25T09:23:40.723Z,8.88
2022-07-25T09:26:49.131Z,10.18
2022-07-25T09:29:52.135Z,10.40
2022-07-25T09:33:02.687Z,9.50
2022-07-25T09:36:12.914Z,9.65
2022-07-25T09:39:15.866Z,8.70
2022-07-25T09:42:24.421Z,9.05
2022-07-25T09:45:31.393Z,9.43
2022-07-25T09:48:36.249Z,10.02
2022-07-25T09:51:39.296Z,9.45
2022-07-25T09:54:42.298Z,9.35
2022-07-25T09:57:47.142Z,10.05
2022-07-25T10:00:50.801Z,9.13
2022-07-25T10:04:03.825Z,8.45
2022-07-25T10:07:10.537Z,8.23
2022-07-25T10:10:24.885Z,9.32
2022-07-25T10:13:32.373Z,8.48
2022-07-25T10:16:46.701Z,7.95
2022-07-25T10:19:55.467Z,8.55
2022-07-25T10:23:01.426Z,9.10
2022-07-25T10:26:09.301Z,8.27
2022-07-25T10:29:14.069Z,9.43
2022-07-25T10:32:17.967Z,7.63
2022-07-25T10:35:22.314Z,7.90
2022-07-25T10:38:26.344Z,9.35
2022-07-25T10:41:30.298Z,7.38
2022-07-25T10:44:42.486Z,8.35
2022-07-25T10:47:54.920Z,7.65
2022-07-25T10:51:04.618Z,7.10
2022-07-25T10:54:15.341Z,6.32
2022-07-25T10:57:18.246Z,7.05
2022-07-25T11:00:21.730Z,6.72
2022-07-25T11:03:26.342Z,5.28
2022-07-25T11:06:35.285Z,6.45
2022-07-25T11:09:38.532Z,5.60
2022-07-25T11:12:45.261Z,5.70
2022-07-25T11:15:48.562Z,6.13
2022-07-25T11:18:51.547Z,6.13
2022-07-25T11:21:58.049Z,5.68
2022-07-25T11:25:01.607Z,6.65
2022-07-25T11:28:04.795Z,4.78
2022-07-25T11:31:08.129Z,5.63
2022-07-25T11:34:11.199Z,5.72
2022-07-25T11:37:16.735Z,5.65
2022-07-25T11:40:20.919Z,5.53
2022-07-25T11:43:25.836Z,5.88
2022-07-25T11:46:28.807Z,5.03
2022-07-25T11:49:32.000Z,6.50
2022-07-25T11:52:38.021Z,5.32
2022-07-25T11:55:42.809Z,5.38
2022-07-25T11:58:51.742Z,4.85
2022-07-25T12:01:54.707Z,4.70
2022-07-25T12:04:59.368Z,4.82
2022-07-25T12:08:12.481Z,4.63
2022-07-25T12:11:23.380Z,5.50
2022-07-25T12:14:26.262Z,5.30
2022-07-25T12:17:29.170Z,4.97
2022-07-25T12:20:34.207Z,4.78
2022-07-25T12:23:42.134Z,5.60
2022-07-25T12:26:45.106Z,5.63
2022-07-25T12:29:48.162Z,4.82
2022-07-25T12:32:51.242Z,5.53
2022-07-25T12:35:54.173Z,5.85
2022-07-25T12:38:58.463Z,5.72
2022-07-25T12:42:01.330Z,5.20
2022-07-25T12:45:04.994Z,5.82
2022-07-25T12:48:08.311Z,5.85
2022-07-25T12:51:11.222Z,6.35
2022-07-25T12:54:22.101Z,5.55
2022-07-25T12:57:25.617Z,5.47
2022-07-25T13:00:28.737Z,5.68
2022-07-25T13:03:31.723Z,5.75
2022-07-25T13:06:38.579Z,5.70
2022-07-25T13:09:43.332Z,5.95
2022-07-25T13:12:46.597Z,5.97
2022-07-25T13:15:49.495Z,5.55
2022-07-25T13:18:52.440Z,6.10
2022-07-25T13:21:55.404Z,5.25
2022-07-25T13:24:59.659Z,5.88
2022-07-25T13:28:04.319Z,5.80
2022-07-25T13:31:13.870Z,5.13
2022-07-25T13:34:16.802Z,5.60
2022-07-25T13:37:19.797Z,5.80
2022-07-25T13:40:24.165Z,6.05
2022-07-25T13:43:27.162Z,5.63
2022-07-25T13:46:30.152Z,5.47
2022-07-25T13:49:33.672Z,5.45
2022-07-25T13:52:37.733Z,6.10
2022-07-25T13:55:42.266Z,5.18
2022-07-25T13:58:45.200Z,5.13
2022-07-25T14:01:51.163Z,4.95
2022-07-25T14:04:54.462Z,5.20
2022-07-25T14:07:57.355Z,5.40
2022-07-25T14:11:01.588Z,4.57
2022-07-25T14:14:04.645Z,4.60
2022-07-25T14:17:07.711Z,5.25
2022-07-25T14:20:11.923Z,4.70
2022-07-25T14:23:14.815Z,4.68
2022-07-25T14:26:19.121Z,4.80
2022-07-25T14:29:25.930Z,4.60
2022-07-25T14:32:31.658Z,4.50
2022-07-25T14:35:35.415Z,4.53
2022-07-25T14:38:38.354Z,4.45
2022-07-25T14:41:43.707Z,4.72
2022-07-25T14:44:47.449Z,4.60
2022-07-25T14:47:50.398Z,4.25
2022-07-25T14:50:53.286Z,4.00
2022-07-25T14:53:56.139Z,4.55
2022-07-25T14:57:00.398Z,4.55
2022-07-25T15:00:03.740Z,4.38
2022-07-25T15:03:06.608Z,3.83
2022-07-25T15:06:10.393Z,5.03
2022-07-25T15:09:13.304Z,4.47
2022-07-25T15:12:19.714Z,3.95
2022-07-25T15:15:22.618Z,2.88
2022-07-25T15:18:25.492Z,3.00
2022-07-25T15:21:28.442Z,3.20
2022-07-25T15:24:40.110Z,2.40
2022-07-25T15:27:55.863Z,2.95
2022-07-25T15:30:58.908Z,2.88
2022-07-25T15:34:01.925Z,2.95
2022-07-25T15:37:04.918Z,2.75
2022-07-25T15:40:08.813Z,2.92
2022-07-25T15:43:13.341Z,2.80
2022-07-25T15:46:17.937Z,2.90
2022-07-25T15:49:22.526Z,3.03
2022-07-25T15:52:26.597Z,3.90
2022-07-25T15:55:29.961Z,2.65
2022-07-25T15:58:34.225Z,3.13
2022-07-25T16:01:37.200Z,3.78
2022-07-25T16:04:40.219Z,3.70
2022-07-25T16:07:43.272Z,3.85
2022-07-25T16:10:46.173Z,3.65
2022-07-25T16:13:50.471Z,4.50
2022-07-25T16:16:54.628Z,4.22
2022-07-25T16:19:57.770Z,3.92
2022-07-25T16:23:00.912Z,5.22
2022-07-25T16:26:04.337Z,4.47
2022-07-25T16:29:08.830Z,4.53
2022-07-25T16:32:11.991Z,4.82
2022-07-25T16:35:14.911Z,5.25
2022-07-25T16:38:18.142Z,4.65
2022-07-25T16:41:21.227Z,4.90
2022-07-25T16:44:25.700Z,4.90
2022-07-25T16:47:28.787Z,5.43
2022-07-25T16:50:31.701Z,5.03
2022-07-25T16:53:36.208Z,4.75
2022-07-25T16:56:39.827Z,5.03
2022-07-25T16:59:44.222Z,5.38
2022-07-25T17:02:47.477Z,4.75
2022-07-25T17:05:51.761Z,5.60
2022-07-25T17:08:54.945Z,5.90
2022-07-25T17:11:57.999Z,5.70
2022-07-25T17:15:02.347Z,5.50
2022-07-25T17:18:05.795Z,5.60
2022-07-25T17:21:09.453Z,6.25
2022-07-25T17:24:12.332Z,6.05
2022-07-25T17:27:16.078Z,5.75
2022-07-25T17:30:20.336Z,6.20
2022-07-25T17:33:23.222Z,6.25
2022-07-25T17:36:26.369Z,5.85
2022-07-25T17:39:29.826Z,5.85
2022-07-25T17:42:32.805Z,6.07
2022-07-25T17:45:37.229Z,5.97
2022-07-25T17:48:41.523Z,5.72
2022-07-25T17:51:44.491Z,5.85
2022-07-25T17:54:47.373Z,6.07
2022-07-25T17:57:53.880Z,6.32
2022-07-25T18:01:01.162Z,5.85
2022-07-25T18:04:04.837Z,6.22
2022-07-25T18:07:08.073Z,5.03
2022-07-25T18:10:11.218Z,5.68
2022-07-25T18:13:14.862Z,5.63
2022-07-25T18:16:19.300Z,5.95
2022-07-25T18:19:23.503Z,6.75
2022-07-25T18:22:27.016Z,6.30
2022-07-25T18:25:29.928Z,6.03
2022-07-25T18:28:32.872Z,5.90
2022-07-25T18:31:37.464Z,5.93
2022-07-25T18:34:40.410Z,5.40
2022-07-25T18:37:43.476Z,6.35
2022-07-25T18:40:46.403Z,5.78
2022-07-25T18:43:50.118Z,6.05
2022-07-25T18:46:55.216Z,5.72
2022-07-25T18:49:58.457Z,5.00
2022-07-25T18:53:01.584Z,5.40
2022-07-25T18:56:05.902Z,6.57
2022-07-25T18:59:09.299Z,6.38
2022-07-25T19:02:15.113Z,5.15
2022-07-25T19:05:18.268Z,5.38
2022-07-25T19:08:21.250Z,5.30
2022-07-25T19:11:24.186Z,5.93
2022-07-25T19:14:28.156Z,5.30
2022-07-25T19:17:33.223Z,5.57
2022-07-25T19:20:36.285Z,5.55
2022-07-25T19:23:39.353Z,5.50
2022-07-25T19:26:42.403Z,4.80
2022-07-25T19:29:45.345Z,5.45
2022-07-25T19:32:49.549Z,5.78
2022-07-25T19:35:52.579Z,5.45
2022-07-25T19:38:55.539Z,4.85
2022-07-25T19:41:58.440Z,5.30
2022-07-25T19:45:01.360Z,5.53
2022-07-25T19:48:06.117Z,5.47
2022-07-25T19:51:08.984Z,4.53
2022-07-25T19:54:12.175Z,5.70
2022-07-25T19:57:15.168Z,5.80
2022-07-25T20:00:18.274Z,5.20
2022-07-25T20:03:23.388Z,5.53
2022-07-25T20:06:26.901Z,5.90
2022-07-25T20:09:30.352Z,5.75
2022-07-25T20:12:34.023Z,5.75
2022-07-25T20:15:37.785Z,5.07
2022-07-25T20:18:41.998Z,6.20
2022-07-25T20:21:45.069Z,6.50
2022-07-25T20:24:48.049Z,6.78
2022-07-25T20:27:51.016Z,6.10
2022-07-25T20:30:55.820Z,6.13
2022-07-25T20:34:00.413Z,6.68
2022-07-25T20:37:03.376Z,6.90
2022-07-25T20:40:08.812Z,7.40
2022-07-25T20:43:11.907Z,7.05
2022-07-25T20:46:14.925Z,7.72
2022-07-25T20:49:19.294Z,8.13
2022-07-25T20:52:22.224Z,6.90
2022-07-25T20:55:25.202Z,7.80
2022-07-25T20:58:28.064Z,7.80
2022-07-25T21:01:31.860Z,7.07
2022-07-25T21:04:36.130Z,7.57
2022-07-25T21:07:39.008Z,7.25
2022-07-25T21:10:42.111Z,7.88
2022-07-25T21:13:44.961Z,7.65
2022-07-25T21:16:48.249Z,7.70
2022-07-25T21:19:52.497Z,7.00
2022-07-25T21:22:56.259Z,8.43
2022-07-25T21:25:59.153Z,7.82
2022-07-25T21:29:02.017Z,6.20
2022-07-25T21:32:05.540Z,5.55
2022-07-25T21:35:10.780Z,5.40
2022-07-25T21:38:13.680Z,6.55
2022-07-25T21:41:31.073Z,7.13
2022-07-25T21:44:33.938Z,7.82
2022-07-25T21:47:36.832Z,8.38
2022-07-25T21:50:42.230Z,7.85
2022-07-25T21:53:47.662Z,7.53
2022-07-25T21:56:50.555Z,6.78
2022-07-25T21:59:53.401Z,7.50
2022-07-25T22:02:56.403Z,6.20
2022-07-25T22:06:00.686Z,6.38
2022-07-25T22:09:03.655Z,6.10
2022-07-25T22:12:07.349Z,5.55
2022-07-25T22:15:14.563Z,4.95
2022-07-25T22:18:17.393Z,4.65
2022-07-25T22:21:21.651Z,5.40
2022-07-25T22:24:24.536Z,4.65
2022-07-25T22:27:27.433Z,4.30
2022-07-25T22:30:30.332Z,4.55
2022-07-25T22:33:34.825Z,4.45
2022-07-25T22:36:39.049Z,4.20
2022-07-25T22:39:41.917Z,4.05
2022-07-25T22:42:44.781Z,3.35
2022-07-25T22:45:47.762Z,3.17
2022-07-25T22:48:50.744Z,3.83
2022-07-25T22:51:54.962Z,3.40
2022-07-25T22:54:57.852Z,2.78
2022-07-25T22:58:00.712Z,2.90
2022-07-25T23:01:03.577Z,3.80
2022-07-25T23:04:06.752Z,2.83
2022-07-25T23:07:11.183Z,2.67
2022-07-25T23:10:15.132Z,2.03
2022-07-25T23:13:18.795Z,2.83
2022-07-25T23:16:21.984Z,2.40
2022-07-25T23:19:24.950Z,2.08
2022-07-25T23:22:30.154Z,3.30
2022-07-25T23:25:33.087Z,3.40
2022-07-25T23:28:35.981Z,2.85
2022-07-25T23:31:38.862Z,3.33
2022-07-25T23:34:41.805Z,2.30
2022-07-25T23:37:46.065Z,2.50
2022-07-25T23:40:49.781Z,2.72
2022-07-25T23:43:57.108Z,2.70
2022-07-25T23:47:02.043Z,2.78
2022-07-25T23:50:05.874Z,2.35
2022-07-25T23:53:10.062Z,3.00
2022-07-25T23:56:17.295Z,2.90
2022-07-25T23:59:23.205Z,3.00
